Buoy 62910

sailwx.info

Track history (hours):
 
Tides and Currents Weather Stations Pressure Air Temp Water Temp Dewpoint Dewpoint Depression Visibility Wind Speed Wind Dir Waves Ship Positions

Drifting buoy 62910

Last reported at 2015-Mar-02 02:45 UTC. Time now 2015-Mar-02 03:41 UTC.
Position N 42°28' E 006°24'.

Water temperature 13.0 ° C

Date/timePositionNaut miles runAvg speedWind from/ knotsBaromVisibWave heightAir tempDewpointWater temp
2015-Mar-02 02:45N 42°28' E 006°24'0 0.0 13.0
2015-Mar-02 01:08N 42°28' E 006°24'1 0.2 13.0
2015-Mar-01 22:20N 42°28' E 006°23'0 0.0 13.0
2015-Mar-01 21:34N 42°28' E 006°23'0 1.7 13.0
2015-Mar-01 21:23N 42°28' E 006°23'0 0.0 13.0
2015-Mar-01 20:41N 42°28' E 006°23'0 3.4 13.0
2015-Mar-01 20:37N 42°28' E 006°23'0 0.0 13.0
2015-Mar-01 19:50N 42°28' E 006°23'0 0.2 13.0
2015-Mar-01 17:53N 42°28' E 006°24'0 2.7 13.0
2015-Mar-01 17:46N 42°28' E 006°23'0 1.6 13.0
2015-Mar-01 17:35N 42°28' E 006°24'0 0.0 12.9
2015-Mar-01 17:04N 42°28' E 006°24'0 0.0 13.0
2015-Mar-01 15:55N 42°28' E 006°24'0 0.0 13.0
2015-Mar-01 15:48N 42°28' E 006°24'0 0.0 13.0
2015-Mar-01 15:26N 42°28' E 006°24'1 0.5 13.0
2015-Mar-01 14:25N 42°28' E 006°24'0 0.7 13.0
2015-Mar-01 14:14N 42°28' E 006°23'0 5.1 13.0
2015-Mar-01 14:11N 42°29' E 006°24'0 0.0 13.0
2015-Mar-01 12:49N 42°29' E 006°24'1 0.5 13.0
2015-Mar-01 11:05N 42°29' E 006°23'0 0.0 13.0
2015-Mar-01 11:01N 42°29' E 006°23'0 0.0 13.0
2015-Mar-01 10:54N 42°29' E 006°23'0 0.2
2015-Mar-01 10:07N 42°29' E 006°23'1 9.8 13.0
2015-Mar-01 10:01N 42°28' E 006°24'1 1.6 13.0
2015-Mar-01 09:21N 42°27' E 006°23'1 1.3 13.0
2015-Mar-01 08:23N 42°28' E 006°24'0 0.0 13.0
2015-Mar-01 07:21N 42°28' E 006°24'0 0.0 13.0
2015-Mar-01 06:05N 42°28' E 006°24'1 1.7 12.9
2015-Mar-01 05:44N 42°29' E 006°23'1 1.0 13.0
2015-Mar-01 04:35N 42°28' E 006°25'0 0.0 13.0
2015-Mar-01 04:26N 42°28' E 006°25'0 2.7 13.0
2015-Mar-01 04:20N 42°28' E 006°24'0 0.9 13.0
2015-Mar-01 03:59N 42°28' E 006°24'0 0.0 13.0
2015-Mar-01 02:59N 42°28' E 006°24'1 0.5 13.0
2015-Mar-01 01:22N 42°28' E 006°26'0 0.0 13.0
2015-Mar-01 01:19N 42°28' E 006°26'1 0.2 13.0
2015-Feb-28 21:54N 42°28' E 006°26'0 4.2 13.0
2015-Feb-28 21:47N 42°28' E 006°26'0 0.0 13.0
2015-Feb-28 21:06N 42°28' E 006°26'1 7.7 13.0
2015-Feb-28 20:59N 42°29' E 006°27'116.5 13.0
2015-Feb-28 20:55N 42°28' E 006°27'0 0.0 13.0
2015-Feb-28 20:13N 42°28' E 006°27'1 2.3 13.0
2015-Feb-28 19:59N 42°28' E 006°28'0 0.0 13.0
2015-Feb-28 19:25N 42°28' E 006°28'0 3.3 13.0
2015-Feb-28 19:16N 42°27' E 006°28'0 0.2 13.0
2015-Feb-28 17:46N 42°28' E 006°28'0 0.0 13.0
2015-Feb-28 17:32N 42°28' E 006°28'1 1.1 13.0
2015-Feb-28 16:46N 42°28' E 006°28'1 0.9 13.1
2015-Feb-28 16:06N 42°28' E 006°28'0 4.6 13.1
2015-Feb-28 16:00N 42°28' E 006°29'0 0.0 13.1
2015-Feb-28 15:53N 42°28' E 006°29'0 0.2 13.1
2015-Feb-28 14:41N 42°28' E 006°29'0 0.8 13.1
2015-Feb-28 14:25N 42°28' E 006°29'111.6 13.1
2015-Feb-28 14:18N 42°29' E 006°31'0 0.0 13.1
2015-Feb-28 13:00N 42°29' E 006°31'0 2.3 13.2
2015-Feb-28 12:53N 42°28' E 006°31'1 0.6 13.2
2015-Feb-28 11:21N 42°28' E 006°30'0 0.0 13.2
2015-Feb-28 11:12N 42°28' E 006°30'0 0.0 13.2
2015-Feb-28 10:30N 42°28' E 006°30'3 2.8 13.1
2015-Feb-28 09:35N 42°27' E 006°33'0 0.0 13.0
2015-Feb-28 08:51N 42°27' E 006°33'0 0.0 13.0
2015-Feb-28 08:47N 42°27' E 006°33'0 0.0 13.0
2015-Feb-28 06:12N 42°27' E 006°33'0 1.3 12.9
2015-Feb-28 06:07N 42°27' E 006°33'1 0.8 12.9
2015-Feb-28 04:29N 42°27' E 006°31'2 1.3 12.9
2015-Feb-28 03:10N 42°27' E 006°33'0 1.6 12.9
2015-Feb-28 03:03N 42°27' E 006°33'1 0.8 12.9
2015-Feb-28 01:26N 42°26' E 006°34'0 0.0 12.9
2015-Feb-27 22:06N 42°26' E 006°34'0 0.0 12.9
2015-Feb-27 20:31N 42°26' E 006°34'0 0.0 12.9
2015-Feb-27 20:25N 42°26' E 006°34'0 0.1 12.9
2015-Feb-27 18:55N 42°26' E 006°35'0 0.5 13.0
2015-Feb-27 17:57N 42°26' E 006°35'0 0.0 13.0
2015-Feb-27 17:55N 42°26' E 006°35'1 0.9 13.0
2015-Feb-27 17:13N 42°26' E 006°36'0 0.0 13.0
2015-Feb-27 16:18N 42°26' E 006°36'0 7.2 13.0
2015-Feb-27 16:15N 42°26' E 006°35'0 0.0 13.0
2015-Feb-27 16:11N 42°26' E 006°35'0 0.0 13.0
2015-Feb-27 14:52N 42°26' E 006°35'0 0.7 13.0
2015-Feb-27 14:34N 42°26' E 006°35'110.4 13.0
2015-Feb-27 14:29N 42°25' E 006°35'0 0.0
2015-Feb-27 13:06N 42°25' E 006°35'0 0.0 13.0
2015-Feb-27 11:41N 42°25' E 006°35'0 0.0 12.9
2015-Feb-27 11:30N 42°25' E 006°35'0 4.3 12.9
2015-Feb-27 11:25N 42°25' E 006°35'0 0.0 12.9
2015-Feb-27 10:49N 42°25' E 006°35'0 2.1 12.9
2015-Feb-27 10:46N 42°25' E 006°35'0 0.0 12.9
2015-Feb-27 10:05N 42°25' E 006°35'0 0.3 13.0
2015-Feb-27 09:09N 42°25' E 006°35'1 0.8 12.9
2015-Feb-27 08:14N 42°25' E 006°36'0 0.0 12.9
2015-Feb-27 06:44N 42°25' E 006°36'0 0.8 12.9
2015-Feb-27 06:28N 42°24' E 006°35'0 0.0 12.9
2015-Feb-27 06:23N 42°24' E 006°35'0 0.0 12.9
2015-Feb-27 05:07N 42°24' E 006°35'0 0.0 12.9
2015-Feb-27 04:49N 42°24' E 006°35'1 0.4 12.9
2015-Feb-27 03:08N 42°24' E 006°36'0 2.9 13.0
2015-Feb-27 03:03N 42°24' E 006°36'1 0.1 13.0
2015-Feb-26 20:52N 42°24' E 006°36'1 1.0 13.0
2015-Feb-26 19:57N 42°23' E 006°36'0 0.0 13.0
2015-Feb-26 19:26N 42°23' E 006°36'0 0.0 13.0
2015-Feb-26 19:11N 42°23' E 006°36'1 7.2 13.0
2015-Feb-26 19:06N 42°24' E 006°36'0 0.5 13.0
2015-Feb-26 18:18N 42°24' E 006°36'0 0.0 13.0
2015-Feb-26 18:08N 42°24' E 006°36'0 0.0 13.0
2015-Feb-26 17:47N 42°24' E 006°36'0 0.0 13.1
2015-Feb-26 16:29N 42°24' E 006°36'0 0.0 13.1
2015-Feb-26 16:25N 42°24' E 006°36'0 0.2 13.1
2015-Feb-26 15:01N 42°23' E 006°36'1 2.2 13.2
2015-Feb-26 14:43N 42°24' E 006°37'1 0.5 13.1
2015-Feb-26 13:20N 42°23' E 006°36'0 0.2 13.1
2015-Feb-26 11:41N 42°23' E 006°36'0 0.0 13.1
2015-Feb-26 11:36N 42°23' E 006°36'0 0.0 13.1
2015-Feb-26 11:11N 42°23' E 006°36'1 8.6 13.0
2015-Feb-26 11:07N 42°23' E 006°37'0 0.0 13.0
2015-Feb-26 10:20N 42°23' E 006°37'1 6.3 13.0
2015-Feb-26 10:14N 42°23' E 006°36'0 0.0 13.0
2015-Feb-26 09:30N 42°23' E 006°36'1 1.1 13.0
2015-Feb-26 08:37N 42°22' E 006°37'0 0.0 13.0
2015-Feb-26 07:49N 42°22' E 006°37'0 0.0
2015-Feb-26 07:16N 42°22' E 006°37'0 0.3 13.0
2015-Feb-26 06:56N 42°22' E 006°37'1 3.9 13.0
2015-Feb-26 06:39N 42°23' E 006°37'0 0.0 12.9
2015-Feb-26 05:33N 42°23' E 006°37'1 2.1 13.0
2015-Feb-26 05:18N 42°23' E 006°37'2 5.3 13.0
2015-Feb-26 05:00N 42°23' E 006°39'116.2 13.0
2015-Feb-26 04:55N 42°23' E 006°37'0 0.0 13.0
2015-Feb-26 03:54N 42°23' E 006°37'1 2.8 12.9
2015-Feb-26 03:39N 42°23' E 006°37'0 0.4 13.0
2015-Feb-26 03:33N 42°23' E 006°37'0 3.3 13.0
2015-Feb-26 03:28N 42°24' E 006°37'0 0.0 13.0
2015-Feb-26 03:17N 42°24' E 006°37'0 0.3 13.0
2015-Feb-26 01:58N 42°24' E 006°38'0 0.0 13.0
2015-Feb-26 01:44N 42°24' E 006°38'0 0.0 13.0
2015-Feb-25 22:52N 42°24' E 006°38'0 0.0 12.9
2015-Feb-25 21:59N 42°24' E 006°38'0 0.0
2015-Feb-25 21:13N 42°24' E 006°38'1 4.3 12.9
2015-Feb-25 21:05N 42°23' E 006°38'0 0.0 12.9
2015-Feb-25 20:31N 42°23' E 006°38'0 0.0 12.9
2015-Feb-25 20:22N 42°23' E 006°38'0 0.0 12.9
2015-Feb-25 20:19N 42°23' E 006°38'0 0.0 12.9
2015-Feb-25 19:57N 42°23' E 006°38'1 2.6 12.9
2015-Feb-25 19:31N 42°22' E 006°37'0 0.0 12.9
2015-Feb-25 19:27N 42°22' E 006°37'0 0.0 12.9
2015-Feb-25 18:43N 42°22' E 006°37'0 0.0 13.0
2015-Feb-25 18:20N 42°22' E 006°37'0 0.0 13.0
2015-Feb-25 17:08N 42°22' E 006°37'1 1.9 13.0
2015-Feb-25 16:33N 42°23' E 006°38'0 0.0 13.0
2015-Feb-25 15:27N 42°23' E 006°38'0 1.5 13.0
2015-Feb-25 15:13N 42°22' E 006°38'0 0.0 13.0
2015-Feb-25 15:01N 42°22' E 006°38'1 6.6 13.0
2015-Feb-25 14:54N 42°23' E 006°39'1 0.5 13.0
2015-Feb-25 13:34N 42°22' E 006°38'1 0.5 13.0
2015-Feb-25 11:45N 42°23' E 006°39'0 0.0
2015-Feb-25 11:27N 42°23' E 006°39'1 1.5 13.0
2015-Feb-25 10:36N 42°22' E 006°38'1 1.1 13.0
2015-Feb-25 09:52N 42°23' E 006°38'0 0.4 13.0
2015-Feb-25 08:59N 42°23' E 006°39'0 0.0 12.9
2015-Feb-25 07:20N 42°23' E 006°39'0 0.0 12.9
2015-Feb-25 06:44N 42°23' E 006°39'0 0.0 12.9
2015-Feb-25 06:09N 42°23' E 006°39'0 0.6 12.9
2015-Feb-25 05:39N 42°23' E 006°38'0 0.5 12.9
2015-Feb-25 05:11N 42°23' E 006°38'0 0.0 12.9
2015-Feb-25 04:26N 42°23' E 006°38'1 1.7 12.9
2015-Feb-25 04:03N 42°23' E 006°39'0 0.0 12.9
2015-Feb-25 03:44N 42°23' E 006°39'0 0.0 12.9
2015-Feb-25 03:30N 42°23' E 006°39'0 0.0 12.9
2015-Feb-25 02:51N 42°23' E 006°39'0 0.0 12.9
2015-Feb-25 01:58N 42°23' E 006°39'0 0.0
2015-Feb-25 00:21N 42°23' E 006°39'0 0.1 12.9
2015-Feb-24 21:37N 42°23' E 006°39'0 1.8 13.0
2015-Feb-24 21:30N 42°23' E 006°39'0 0.0 13.0
2015-Feb-24 20:49N 42°23' E 006°39'0 5.9 13.0
2015-Feb-24 20:44N 42°24' E 006°39'0 0.0 13.0
2015-Feb-24 20:26N 42°24' E 006°39'0 0.0 13.0
2015-Feb-24 19:52N 42°24' E 006°39'0 2.6 13.0
2015-Feb-24 19:45N 42°24' E 006°39'0 0.1 13.0
2015-Feb-24 19:01N 42°24' E 006°39'0 0.0
2015-Feb-24 18:51N 42°24' E 006°39'0 0.4 13.0
2015-Feb-24 17:31N 42°24' E 006°39'0 0.8 12.9
2015-Feb-24 17:06N 42°24' E 006°39'0 0.0 12.9
2015-Feb-24 16:52N 42°24' E 006°39'2 1.6 12.9
2015-Feb-24 15:45N 42°26' E 006°38'0 0.0 12.9
2015-Feb-24 15:22N 42°26' E 006°38'0 0.0 12.9
2015-Feb-24 15:11N 42°26' E 006°38'0 0.0 12.9
2015-Feb-24 15:01N 42°26' E 006°38'2 1.2 12.9
2015-Feb-24 13:36N 42°27' E 006°40'0 0.0 12.9
2015-Feb-24 11:57N 42°27' E 006°40'0 0.0
2015-Feb-24 11:47N 42°27' E 006°40'0 0.0 12.9
2015-Feb-24 10:11N 42°27' E 006°40'0 0.4 12.9
2015-Feb-24 09:23N 42°27' E 006°40'1 0.9 12.9
2015-Feb-24 07:43N 42°28' E 006°38'0 0.0 12.9
2015-Feb-24 07:00N 42°28' E 006°38'0 0.0 12.9
2015-Feb-24 06:41N 42°28' E 006°38'0 0.5 12.9
2015-Feb-24 06:06N 42°28' E 006°38'0 0.4 12.9
2015-Feb-24 05:21N 42°28' E 006°38'1 2.5 12.9
2015-Feb-24 04:58N 42°28' E 006°39'0 0.0 12.9
2015-Feb-24 04:27N 42°28' E 006°39'0 0.0 12.9
2015-Feb-24 03:55N 42°28' E 006°39'1 3.8 12.9
2015-Feb-24 03:39N 42°28' E 006°38'0 0.0 12.9
2015-Feb-24 03:18N 42°28' E 006°38'0 0.0 12.9
2015-Feb-24 02:16N 42°28' E 006°38'0 0.0 12.9
2015-Feb-24 00:35N 42°28' E 006°38'0 0.0 12.9
2015-Feb-24 00:30N 42°28' E 006°38'0 0.1 12.9
2015-Feb-23 21:54N 42°28' E 006°38'1 7.0 12.9
2015-Feb-23 21:47N 42°29' E 006°39'0 0.0 12.9
2015-Feb-23 21:10N 42°29' E 006°39'1 4.2 13.0
2015-Feb-23 21:00N 42°28' E 006°39'0 0.0 13.0
2015-Feb-23 20:17N 42°28' E 006°39'1 4.5 13.0
2015-Feb-23 20:08N 42°27' E 006°38'0 0.0 13.0
2015-Feb-23 19:22N 42°27' E 006°38'0 5.0 13.0
2015-Feb-23 19:19N 42°27' E 006°38'1 0.6 13.0
2015-Feb-23 17:56N 42°28' E 006°39'1 4.4 13.0
2015-Feb-23 17:40N 42°28' E 006°38'0 0.0 13.0
2015-Feb-23 17:05N 42°28' E 006°38'0 3.3 13.0
2015-Feb-23 16:59N 42°28' E 006°37'0 0.0 13.0
2015-Feb-23 16:17N 42°28' E 006°37'1 1.6 13.0
2015-Feb-23 15:22N 42°30' E 006°38'0 0.0 13.0
2015-Feb-23 13:54N 42°30' E 006°38'1 4.1 13.0
2015-Feb-23 13:42N 42°29' E 006°37'0 0.0 13.0
2015-Feb-23 13:36N 42°29' E 006°37'0 0.0 13.0
2015-Feb-23 12:11N 42°29' E 006°37'131.7 13.0
2015-Feb-23 12:10N 42°29' E 006°37'0 0.0 13.0
2015-Feb-23 12:08N 42°29' E 006°37'0 0.0 13.0
2015-Feb-23 10:27N 42°29' E 006°37'0 0.1 13.0
2015-Feb-23 09:43N 42°29' E 006°37'0 0.5 13.0
2015-Feb-23 08:50N 42°29' E 006°37'0 0.0 13.0
2015-Feb-23 07:09N 42°29' E 006°37'0 0.0 12.9
2015-Feb-23 06:32N 42°29' E 006°37'1 0.8 12.9
2015-Feb-23 05:39N 42°30' E 006°37'0 0.0 12.9
2015-Feb-23 05:32N 42°30' E 006°37'1 4.5 12.9
2015-Feb-23 05:25N 42°30' E 006°36'0 0.1 12.9
2015-Feb-23 04:53N 42°30' E 006°36'1 0.8 12.9
2015-Feb-23 04:04N 42°30' E 006°37'1 2.2 12.9
2015-Feb-23 03:50N 42°30' E 006°37'1 2.2 12.9
2015-Feb-23 03:11N 42°31' E 006°38'0 0.0 12.9
2015-Feb-23 02:25N 42°31' E 006°38'1 0.3 12.9
2015-Feb-23 00:41N 42°31' E 006°37'0 0.0 12.9
2015-Feb-22 22:18N 42°31' E 006°37'1 4.5 13.0
2015-Feb-22 22:09N 42°31' E 006°37'1 1.9 13.0
2015-Feb-22 21:23N 42°33' E 006°36'0 0.0 13.0
2015-Feb-22 20:39N 42°33' E 006°36'0 0.0 13.0
2015-Feb-22 20:28N 42°33' E 006°36'0 0.0 13.0
2015-Feb-22 19:53N 42°33' E 006°36'0 0.0 12.9
2015-Feb-22 19:40N 42°33' E 006°36'0 0.0 12.9
2015-Feb-22 18:17N 42°33' E 006°36'0 0.0 12.9
2015-Feb-22 18:14N 42°33' E 006°36'0 0.0 12.9
2015-Feb-22 17:15N 42°33' E 006°36'116.4 13.0
2015-Feb-22 17:12N 42°32' E 006°37'2 4.3 13.0
2015-Feb-22 16:42N 42°33' E 006°34'0 0.0 13.0
2015-Feb-22 16:31N 42°33' E 006°34'0 0.0 13.0
2015-Feb-22 15:33N 42°33' E 006°34'1 5.4 13.0
2015-Feb-22 15:26N 42°33' E 006°35'0 0.0 13.0
2015-Feb-22 15:22N 42°33' E 006°35'0 0.0 13.0
2015-Feb-22 14:08N 42°33' E 006°35'0 1.5 13.0
2015-Feb-22 14:05N 42°33' E 006°34'0 0.8 13.0
2015-Feb-22 13:49N 42°34' E 006°34'0 0.0 13.0
2015-Feb-22 12:29N 42°34' E 006°34'0 0.2 12.9
2015-Feb-22 12:17N 42°34' E 006°34'0 0.0 12.9
2015-Feb-22 11:40N 42°34' E 006°34'0 0.0 12.9
2015-Feb-22 10:50N 42°34' E 006°34'1 0.9 12.9
2015-Feb-22 10:06N 42°34' E 006°33'0 1.0 12.9
2015-Feb-22 09:57N 42°34' E 006°34'0 0.0
2015-Feb-22 09:15N 42°34' E 006°34'0 0.7 12.9
2015-Feb-22 09:11N 42°34' E 006°33'0 0.5 12.9
2015-Feb-22 08:20N 42°34' E 006°34'0 0.2 12.9
2015-Feb-22 07:22N 42°34' E 006°33'0 0.4 12.8
2015-Feb-22 06:55N 42°34' E 006°34'0 0.3 12.8
2015-Feb-22 06:02N 42°35' E 006°34'0 0.4 12.9
2015-Feb-22 05:45N 42°35' E 006°34'1 5.7 12.8
2015-Feb-22 05:38N 42°35' E 006°35'0 0.3 12.8
2015-Feb-22 05:16N 42°35' E 006°34'0 0.2 12.8
2015-Feb-22 04:20N 42°35' E 006°34'0 0.0 12.8
2015-Feb-22 04:13N 42°35' E 006°34'0 0.0 12.8
2015-Feb-22 04:04N 42°35' E 006°34'1 1.9 12.8
2015-Feb-22 03:34N 42°35' E 006°36'2 1.4 12.8
2015-Feb-22 02:29N 42°36' E 006°35'2 1.0 12.8
2015-Feb-22 00:51N 42°37' E 006°37'0 0.0 12.8
2015-Feb-21 21:46N 42°37' E 006°37'0 0.0 12.8
2015-Feb-21 20:55N 42°37' E 006°37'0 0.1 12.8
2015-Feb-21 20:09N 42°37' E 006°37'1 6.1 12.8
2015-Feb-21 20:02N 42°37' E 006°38'1 0.3 12.8
2015-Feb-21 17:07N 42°37' E 006°39'0 7.5 12.9
2015-Feb-21 17:03N 42°38' E 006°40'0 0.0 12.9
2015-Feb-21 17:01N 42°38' E 006°40'0 0.1 12.9
2015-Feb-21 14:01N 42°38' E 006°40'110.7
2015-Feb-21 13:58N 42°37' E 006°41'1 0.4
2015-Feb-21 11:12N 42°37' E 006°42'0 1.6 13.0
2015-Feb-21 10:56N 42°37' E 006°42'2 0.6 13.0
2015-Feb-21 07:47N 42°37' E 006°45'1 0.5 13.0
2015-Feb-21 05:55N 42°38' E 006°46'1 8.1 13.0
2015-Feb-21 05:50N 42°37' E 006°46'0 0.1 13.0
2015-Feb-21 04:50N 42°37' E 006°45'0 0.0 13.0
2015-Feb-21 04:13N 42°37' E 006°45'0 0.0 13.0
2015-Feb-21 04:01N 42°37' E 006°45'1 0.3 13.0
2015-Feb-21 01:06N 42°36' E 006°46'1 0.4 13.1
2015-Feb-20 22:07N 42°35' E 006°47'0 0.0 13.1
2015-Feb-20 21:20N 42°35' E 006°47'1 3.8 13.1
2015-Feb-20 21:09N 42°35' E 006°47'0 0.0 13.1
2015-Feb-20 20:32N 42°35' E 006°47'0 0.6 13.1
2015-Feb-20 20:21N 42°35' E 006°46'0 0.4 13.1
2015-Feb-20 19:28N 42°34' E 006°47'0 1.0 13.1
2015-Feb-20 19:14N 42°34' E 006°47'0 0.2 13.1
2015-Feb-20 17:37N 42°35' E 006°47'1 9.9 13.1
2015-Feb-20 17:30N 42°35' E 006°48'0 0.0 13.2
2015-Feb-20 16:00N 42°35' E 006°48'0 0.4 13.2
2015-Feb-20 15:53N 42°35' E 006°48'2 1.0 13.2
2015-Feb-20 14:10N 42°35' E 006°46'0 0.0 13.2
2015-Feb-20 14:09N 42°35' E 006°46'0 0.0 13.2
2015-Feb-20 12:46N 42°35' E 006°46'1 0.3 13.1
2015-Feb-20 11:01N 42°35' E 006°45'1 0.5 13.1
2015-Feb-20 09:51N 42°35' E 006°46'1 1.0 13.0
2015-Feb-20 09:05N 42°34' E 006°45'1 0.9 13.0
2015-Feb-20 08:08N 42°35' E 006°44'0 0.0 13.0
2015-Feb-20 07:03N 42°35' E 006°44'0 0.0 13.0
2015-Feb-20 06:08N 42°35' E 006°44'1 7.2 13.0
2015-Feb-20 06:03N 42°34' E 006°45'0 0.1 13.0
2015-Feb-20 02:59N 42°34' E 006°45'1 7.2 13.0
2015-Feb-20 02:52N 42°35' E 006°45'   13.0
Track history (hours):
 
Tides and Currents Weather Stations Pressure Air Temp Water Temp Dewpoint Dewpoint Depression Visibility Wind Speed Wind Dir Waves Ship Positions

Drifting buoy 62910

Last reported at 2015-Mar-02 02:45 UTC. Time now 2015-Mar-02 03:41 UTC.
Position N 42°28' E 006°24'.

Water temperature 13.0 ° C

Date/timePositionNaut miles runAvg speedWind from/ knotsBaromVisibWave heightAir tempDewpointWater temp
2015-Mar-02 02:45N 42°28' E 006°24'0 0.0 13.0
2015-Mar-02 01:08N 42°28' E 006°24'1 0.2 13.0
2015-Mar-01 22:20N 42°28' E 006°23'0 0.0 13.0
2015-Mar-01 21:34N 42°28' E 006°23'0 1.7 13.0
2015-Mar-01 21:23N 42°28' E 006°23'0 0.0 13.0
2015-Mar-01 20:41N 42°28' E 006°23'0 3.4 13.0
2015-Mar-01 20:37N 42°28' E 006°23'0 0.0 13.0
2015-Mar-01 19:50N 42°28' E 006°23'0 0.2 13.0
2015-Mar-01 17:53N 42°28' E 006°24'0 2.7 13.0
2015-Mar-01 17:46N 42°28' E 006°23'0 1.6 13.0
2015-Mar-01 17:35N 42°28' E 006°24'0 0.0 12.9
2015-Mar-01 17:04N 42°28' E 006°24'0 0.0 13.0
2015-Mar-01 15:55N 42°28' E 006°24'0 0.0 13.0
2015-Mar-01 15:48N 42°28' E 006°24'0 0.0 13.0
2015-Mar-01 15:26N 42°28' E 006°24'1 0.5 13.0
2015-Mar-01 14:25N 42°28' E 006°24'0 0.7 13.0
2015-Mar-01 14:14N 42°28' E 006°23'0 5.1 13.0
2015-Mar-01 14:11N 42°29' E 006°24'0 0.0 13.0
2015-Mar-01 12:49N 42°29' E 006°24'1 0.5 13.0
2015-Mar-01 11:05N 42°29' E 006°23'0 0.0 13.0
2015-Mar-01 11:01N 42°29' E 006°23'0 0.0 13.0
2015-Mar-01 10:54N 42°29' E 006°23'0 0.2
2015-Mar-01 10:07N 42°29' E 006°23'1 9.8 13.0
2015-Mar-01 10:01N 42°28' E 006°24'1 1.6 13.0
2015-Mar-01 09:21N 42°27' E 006°23'1 1.3 13.0
2015-Mar-01 08:23N 42°28' E 006°24'0 0.0 13.0
2015-Mar-01 07:21N 42°28' E 006°24'0 0.0 13.0
2015-Mar-01 06:05N 42°28' E 006°24'1 1.7 12.9
2015-Mar-01 05:44N 42°29' E 006°23'1 1.0 13.0
2015-Mar-01 04:35N 42°28' E 006°25'0 0.0 13.0
2015-Mar-01 04:26N 42°28' E 006°25'0 2.7 13.0
2015-Mar-01 04:20N 42°28' E 006°24'0 0.9 13.0
2015-Mar-01 03:59N 42°28' E 006°24'0 0.0 13.0
2015-Mar-01 02:59N 42°28' E 006°24'1 0.5 13.0
2015-Mar-01 01:22N 42°28' E 006°26'0 0.0 13.0
2015-Mar-01 01:19N 42°28' E 006°26'1 0.2 13.0
2015-Feb-28 21:54N 42°28' E 006°26'0 4.2 13.0
2015-Feb-28 21:47N 42°28' E 006°26'0 0.0 13.0
2015-Feb-28 21:06N 42°28' E 006°26'1 7.7 13.0
2015-Feb-28 20:59N 42°29' E 006°27'116.5 13.0
2015-Feb-28 20:55N 42°28' E 006°27'0 0.0 13.0
2015-Feb-28 20:13N 42°28' E 006°27'1 2.3 13.0
2015-Feb-28 19:59N 42°28' E 006°28'0 0.0 13.0
2015-Feb-28 19:25N 42°28' E 006°28'0 3.3 13.0
2015-Feb-28 19:16N 42°27' E 006°28'0 0.2 13.0
2015-Feb-28 17:46N 42°28' E 006°28'0 0.0 13.0
2015-Feb-28 17:32N 42°28' E 006°28'1 1.1 13.0
2015-Feb-28 16:46N 42°28' E 006°28'1 0.9 13.1
2015-Feb-28 16:06N 42°28' E 006°28'0 4.6 13.1
2015-Feb-28 16:00N 42°28' E 006°29'0 0.0 13.1
2015-Feb-28 15:53N 42°28' E 006°29'0 0.2 13.1
2015-Feb-28 14:41N 42°28' E 006°29'0 0.8 13.1
2015-Feb-28 14:25N 42°28' E 006°29'111.6 13.1
2015-Feb-28 14:18N 42°29' E 006°31'0 0.0 13.1
2015-Feb-28 13:00N 42°29' E 006°31'0 2.3 13.2
2015-Feb-28 12:53N 42°28' E 006°31'1 0.6 13.2
2015-Feb-28 11:21N 42°28' E 006°30'0 0.0 13.2
2015-Feb-28 11:12N 42°28' E 006°30'0 0.0 13.2
2015-Feb-28 10:30N 42°28' E 006°30'3 2.8 13.1
2015-Feb-28 09:35N 42°27' E 006°33'0 0.0 13.0
2015-Feb-28 08:51N 42°27' E 006°33'0 0.0 13.0
2015-Feb-28 08:47N 42°27' E 006°33'0 0.0 13.0
2015-Feb-28 06:12N 42°27' E 006°33'0 1.3 12.9
2015-Feb-28 06:07N 42°27' E 006°33'1 0.8 12.9
2015-Feb-28 04:29N 42°27' E 006°31'2 1.3 12.9
2015-Feb-28 03:10N 42°27' E 006°33'0 1.6 12.9
2015-Feb-28 03:03N 42°27' E 006°33'1 0.8 12.9
2015-Feb-28 01:26N 42°26' E 006°34'0 0.0 12.9
2015-Feb-27 22:06N 42°26' E 006°34'0 0.0 12.9
2015-Feb-27 20:31N 42°26' E 006°34'0 0.0 12.9
2015-Feb-27 20:25N 42°26' E 006°34'0 0.1 12.9
2015-Feb-27 18:55N 42°26' E 006°35'0 0.5 13.0
2015-Feb-27 17:57N 42°26' E 006°35'0 0.0 13.0
2015-Feb-27 17:55N 42°26' E 006°35'1 0.9 13.0
2015-Feb-27 17:13N 42°26' E 006°36'0 0.0 13.0
2015-Feb-27 16:18N 42°26' E 006°36'0 7.2 13.0
2015-Feb-27 16:15N 42°26' E 006°35'0 0.0 13.0
2015-Feb-27 16:11N 42°26' E 006°35'0 0.0 13.0
2015-Feb-27 14:52N 42°26' E 006°35'0 0.7 13.0
2015-Feb-27 14:34N 42°26' E 006°35'110.4 13.0
2015-Feb-27 14:29N 42°25' E 006°35'0 0.0
2015-Feb-27 13:06N 42°25' E 006°35'0 0.0 13.0
2015-Feb-27 11:41N 42°25' E 006°35'0 0.0 12.9
2015-Feb-27 11:30N 42°25' E 006°35'0 4.3 12.9
2015-Feb-27 11:25N 42°25' E 006°35'0 0.0 12.9
2015-Feb-27 10:49N 42°25' E 006°35'0 2.1 12.9
2015-Feb-27 10:46N 42°25' E 006°35'0 0.0 12.9
2015-Feb-27 10:05N 42°25' E 006°35'0 0.3 13.0
2015-Feb-27 09:09N 42°25' E 006°35'1 0.8 12.9
2015-Feb-27 08:14N 42°25' E 006°36'0 0.0 12.9
2015-Feb-27 06:44N 42°25' E 006°36'0 0.8 12.9
2015-Feb-27 06:28N 42°24' E 006°35'0 0.0 12.9
2015-Feb-27 06:23N 42°24' E 006°35'0 0.0 12.9
2015-Feb-27 05:07N 42°24' E 006°35'0 0.0 12.9
2015-Feb-27 04:49N 42°24' E 006°35'1 0.4 12.9
2015-Feb-27 03:08N 42°24' E 006°36'0 2.9 13.0
2015-Feb-27 03:03N 42°24' E 006°36'1 0.1 13.0
2015-Feb-26 20:52N 42°24' E 006°36'1 1.0 13.0
2015-Feb-26 19:57N 42°23' E 006°36'0 0.0 13.0
2015-Feb-26 19:26N 42°23' E 006°36'0 0.0 13.0
2015-Feb-26 19:11N 42°23' E 006°36'1 7.2 13.0
2015-Feb-26 19:06N 42°24' E 006°36'0 0.5 13.0
2015-Feb-26 18:18N 42°24' E 006°36'0 0.0 13.0
2015-Feb-26 18:08N 42°24' E 006°36'0 0.0 13.0
2015-Feb-26 17:47N 42°24' E 006°36'0 0.0 13.1
2015-Feb-26 16:29N 42°24' E 006°36'0 0.0 13.1
2015-Feb-26 16:25N 42°24' E 006°36'0 0.2 13.1
2015-Feb-26 15:01N 42°23' E 006°36'1 2.2 13.2
2015-Feb-26 14:43N 42°24' E 006°37'1 0.5 13.1
2015-Feb-26 13:20N 42°23' E 006°36'0 0.2 13.1
2015-Feb-26 11:41N 42°23' E 006°36'0 0.0 13.1
2015-Feb-26 11:36N 42°23' E 006°36'0 0.0 13.1
2015-Feb-26 11:11N 42°23' E 006°36'1 8.6 13.0
2015-Feb-26 11:07N 42°23' E 006°37'0 0.0 13.0
2015-Feb-26 10:20N 42°23' E 006°37'1 6.3 13.0
2015-Feb-26 10:14N 42°23' E 006°36'0 0.0 13.0
2015-Feb-26 09:30N 42°23' E 006°36'1 1.1 13.0
2015-Feb-26 08:37N 42°22' E 006°37'0 0.0 13.0
2015-Feb-26 07:49N 42°22' E 006°37'0 0.0
2015-Feb-26 07:16N 42°22' E 006°37'0 0.3 13.0
2015-Feb-26 06:56N 42°22' E 006°37'1 3.9 13.0
2015-Feb-26 06:39N 42°23' E 006°37'0 0.0 12.9
2015-Feb-26 05:33N 42°23' E 006°37'1 2.1 13.0
2015-Feb-26 05:18N 42°23' E 006°37'2 5.3 13.0
2015-Feb-26 05:00N 42°23' E 006°39'116.2 13.0
2015-Feb-26 04:55N 42°23' E 006°37'0 0.0 13.0
2015-Feb-26 03:54N 42°23' E 006°37'1 2.8 12.9
2015-Feb-26 03:39N 42°23' E 006°37'0 0.4 13.0
2015-Feb-26 03:33N 42°23' E 006°37'0 3.3 13.0
2015-Feb-26 03:28N 42°24' E 006°37'0 0.0 13.0
2015-Feb-26 03:17N 42°24' E 006°37'0 0.3 13.0
2015-Feb-26 01:58N 42°24' E 006°38'0 0.0 13.0
2015-Feb-26 01:44N 42°24' E 006°38'0 0.0 13.0
2015-Feb-25 22:52N 42°24' E 006°38'0 0.0 12.9
2015-Feb-25 21:59N 42°24' E 006°38'0 0.0
2015-Feb-25 21:13N 42°24' E 006°38'1 4.3 12.9
2015-Feb-25 21:05N 42°23' E 006°38'0 0.0 12.9
2015-Feb-25 20:31N 42°23' E 006°38'0 0.0 12.9
2015-Feb-25 20:22N 42°23' E 006°38'0 0.0 12.9
2015-Feb-25 20:19N 42°23' E 006°38'0 0.0 12.9
2015-Feb-25 19:57N 42°23' E 006°38'1 2.6 12.9
2015-Feb-25 19:31N 42°22' E 006°37'0 0.0 12.9
2015-Feb-25 19:27N 42°22' E 006°37'0 0.0 12.9
2015-Feb-25 18:43N 42°22' E 006°37'0 0.0 13.0
2015-Feb-25 18:20N 42°22' E 006°37'0 0.0 13.0
2015-Feb-25 17:08N 42°22' E 006°37'1 1.9 13.0
2015-Feb-25 16:33N 42°23' E 006°38'0 0.0 13.0
2015-Feb-25 15:27N 42°23' E 006°38'0 1.5 13.0
2015-Feb-25 15:13N 42°22' E 006°38'0 0.0 13.0
2015-Feb-25 15:01N 42°22' E 006°38'1 6.6 13.0
2015-Feb-25 14:54N 42°23' E 006°39'1 0.5 13.0
2015-Feb-25 13:34N 42°22' E 006°38'1 0.5 13.0
2015-Feb-25 11:45N 42°23' E 006°39'0 0.0
2015-Feb-25 11:27N 42°23' E 006°39'1 1.5 13.0
2015-Feb-25 10:36N 42°22' E 006°38'1 1.1 13.0
2015-Feb-25 09:52N 42°23' E 006°38'0 0.4 13.0
2015-Feb-25 08:59N 42°23' E 006°39'0 0.0 12.9
2015-Feb-25 07:20N 42°23' E 006°39'0 0.0 12.9
2015-Feb-25 06:44N 42°23' E 006°39'0 0.0 12.9
2015-Feb-25 06:09N 42°23' E 006°39'0 0.6 12.9
2015-Feb-25 05:39N 42°23' E 006°38'0 0.5 12.9
2015-Feb-25 05:11N 42°23' E 006°38'0 0.0 12.9
2015-Feb-25 04:26N 42°23' E 006°38'1 1.7 12.9
2015-Feb-25 04:03N 42°23' E 006°39'0 0.0 12.9
2015-Feb-25 03:44N 42°23' E 006°39'0 0.0 12.9
2015-Feb-25 03:30N 42°23' E 006°39'0 0.0 12.9
2015-Feb-25 02:51N 42°23' E 006°39'0 0.0 12.9
2015-Feb-25 01:58N 42°23' E 006°39'0 0.0
2015-Feb-25 00:21N 42°23' E 006°39'0 0.1 12.9
2015-Feb-24 21:37N 42°23' E 006°39'0 1.8 13.0
2015-Feb-24 21:30N 42°23' E 006°39'0 0.0 13.0
2015-Feb-24 20:49N 42°23' E 006°39'0 5.9 13.0
2015-Feb-24 20:44N 42°24' E 006°39'0 0.0 13.0
2015-Feb-24 20:26N 42°24' E 006°39'0 0.0 13.0
2015-Feb-24 19:52N 42°24' E 006°39'0 2.6 13.0
2015-Feb-24 19:45N 42°24' E 006°39'0 0.1 13.0
2015-Feb-24 19:01N 42°24' E 006°39'0 0.0
2015-Feb-24 18:51N 42°24' E 006°39'0 0.4 13.0
2015-Feb-24 17:31N 42°24' E 006°39'0 0.8 12.9
2015-Feb-24 17:06N 42°24' E 006°39'0 0.0 12.9
2015-Feb-24 16:52N 42°24' E 006°39'2 1.6 12.9
2015-Feb-24 15:45N 42°26' E 006°38'0 0.0 12.9
2015-Feb-24 15:22N 42°26' E 006°38'0 0.0 12.9
2015-Feb-24 15:11N 42°26' E 006°38'0 0.0 12.9
2015-Feb-24 15:01N 42°26' E 006°38'2 1.2 12.9
2015-Feb-24 13:36N 42°27' E 006°40'0 0.0 12.9
2015-Feb-24 11:57N 42°27' E 006°40'0 0.0
2015-Feb-24 11:47N 42°27' E 006°40'0 0.0 12.9
2015-Feb-24 10:11N 42°27' E 006°40'0 0.4 12.9
2015-Feb-24 09:23N 42°27' E 006°40'1 0.9 12.9
2015-Feb-24 07:43N 42°28' E 006°38'0 0.0 12.9
2015-Feb-24 07:00N 42°28' E 006°38'0 0.0 12.9
2015-Feb-24 06:41N 42°28' E 006°38'0 0.5 12.9
2015-Feb-24 06:06N 42°28' E 006°38'0 0.4 12.9
2015-Feb-24 05:21N 42°28' E 006°38'1 2.5 12.9
2015-Feb-24 04:58N 42°28' E 006°39'0 0.0 12.9
2015-Feb-24 04:27N 42°28' E 006°39'0 0.0 12.9
2015-Feb-24 03:55N 42°28' E 006°39'1 3.8 12.9
2015-Feb-24 03:39N 42°28' E 006°38'0 0.0 12.9
2015-Feb-24 03:18N 42°28' E 006°38'0 0.0 12.9
2015-Feb-24 02:16N 42°28' E 006°38'0 0.0 12.9
2015-Feb-24 00:35N 42°28' E 006°38'0 0.0 12.9
2015-Feb-24 00:30N 42°28' E 006°38'0 0.1 12.9
2015-Feb-23 21:54N 42°28' E 006°38'1 7.0 12.9
2015-Feb-23 21:47N 42°29' E 006°39'0 0.0 12.9
2015-Feb-23 21:10N 42°29' E 006°39'1 4.2 13.0
2015-Feb-23 21:00N 42°28' E 006°39'0 0.0 13.0
2015-Feb-23 20:17N 42°28' E 006°39'1 4.5 13.0
2015-Feb-23 20:08N 42°27' E 006°38'0 0.0 13.0
2015-Feb-23 19:22N 42°27' E 006°38'0 5.0 13.0
2015-Feb-23 19:19N 42°27' E 006°38'1 0.6 13.0
2015-Feb-23 17:56N 42°28' E 006°39'1 4.4 13.0
2015-Feb-23 17:40N 42°28' E 006°38'0 0.0 13.0
2015-Feb-23 17:05N 42°28' E 006°38'0 3.3 13.0
2015-Feb-23 16:59N 42°28' E 006°37'0 0.0 13.0
2015-Feb-23 16:17N 42°28' E 006°37'1 1.6 13.0
2015-Feb-23 15:22N 42°30' E 006°38'0 0.0 13.0
2015-Feb-23 13:54N 42°30' E 006°38'1 4.1 13.0
2015-Feb-23 13:42N 42°29' E 006°37'0 0.0 13.0
2015-Feb-23 13:36N 42°29' E 006°37'0 0.0 13.0
2015-Feb-23 12:11N 42°29' E 006°37'131.7 13.0
2015-Feb-23 12:10N 42°29' E 006°37'0 0.0 13.0
2015-Feb-23 12:08N 42°29' E 006°37'0 0.0 13.0
2015-Feb-23 10:27N 42°29' E 006°37'0 0.1 13.0
2015-Feb-23 09:43N 42°29' E 006°37'0 0.5 13.0
2015-Feb-23 08:50N 42°29' E 006°37'0 0.0 13.0
2015-Feb-23 07:09N 42°29' E 006°37'0 0.0 12.9
2015-Feb-23 06:32N 42°29' E 006°37'1 0.8 12.9
2015-Feb-23 05:39N 42°30' E 006°37'0 0.0 12.9
2015-Feb-23 05:32N 42°30' E 006°37'1 4.5 12.9
2015-Feb-23 05:25N 42°30' E 006°36'0 0.1 12.9
2015-Feb-23 04:53N 42°30' E 006°36'1 0.8 12.9
2015-Feb-23 04:04N 42°30' E 006°37'1 2.2 12.9
2015-Feb-23 03:50N 42°30' E 006°37'1 2.2 12.9
2015-Feb-23 03:11N 42°31' E 006°38'0 0.0 12.9
2015-Feb-23 02:25N 42°31' E 006°38'1 0.3 12.9
2015-Feb-23 00:41N 42°31' E 006°37'0 0.0 12.9
2015-Feb-22 22:18N 42°31' E 006°37'1 4.5 13.0
2015-Feb-22 22:09N 42°31' E 006°37'1 1.9 13.0
2015-Feb-22 21:23N 42°33' E 006°36'0 0.0 13.0
2015-Feb-22 20:39N 42°33' E 006°36'0 0.0 13.0
2015-Feb-22 20:28N 42°33' E 006°36'0 0.0 13.0
2015-Feb-22 19:53N 42°33' E 006°36'0 0.0 12.9
2015-Feb-22 19:40N 42°33' E 006°36'0 0.0 12.9
2015-Feb-22 18:17N 42°33' E 006°36'0 0.0 12.9
2015-Feb-22 18:14N 42°33' E 006°36'0 0.0 12.9
2015-Feb-22 17:15N 42°33' E 006°36'116.4 13.0
2015-Feb-22 17:12N 42°32' E 006°37'2 4.3 13.0
2015-Feb-22 16:42N 42°33' E 006°34'0 0.0 13.0
2015-Feb-22 16:31N 42°33' E 006°34'0 0.0 13.0
2015-Feb-22 15:33N 42°33' E 006°34'1 5.4 13.0
2015-Feb-22 15:26N 42°33' E 006°35'0 0.0 13.0
2015-Feb-22 15:22N 42°33' E 006°35'0 0.0 13.0
2015-Feb-22 14:08N 42°33' E 006°35'0 1.5 13.0
2015-Feb-22 14:05N 42°33' E 006°34'0 0.8 13.0
2015-Feb-22 13:49N 42°34' E 006°34'0 0.0 13.0
2015-Feb-22 12:29N 42°34' E 006°34'0 0.2 12.9
2015-Feb-22 12:17N 42°34' E 006°34'0 0.0 12.9
2015-Feb-22 11:40N 42°34' E 006°34'0 0.0 12.9
2015-Feb-22 10:50N 42°34' E 006°34'1 0.9 12.9
2015-Feb-22 10:06N 42°34' E 006°33'0 1.0 12.9
2015-Feb-22 09:57N 42°34' E 006°34'0 0.0
2015-Feb-22 09:15N 42°34' E 006°34'0 0.7 12.9
2015-Feb-22 09:11N 42°34' E 006°33'0 0.5 12.9
2015-Feb-22 08:20N 42°34' E 006°34'0 0.2 12.9
2015-Feb-22 07:22N 42°34' E 006°33'0 0.4 12.8
2015-Feb-22 06:55N 42°34' E 006°34'0 0.3 12.8
2015-Feb-22 06:02N 42°35' E 006°34'0 0.4 12.9
2015-Feb-22 05:45N 42°35' E 006°34'1 5.7 12.8
2015-Feb-22 05:38N 42°35' E 006°35'0 0.3 12.8
2015-Feb-22 05:16N 42°35' E 006°34'0 0.2 12.8
2015-Feb-22 04:20N 42°35' E 006°34'0 0.0 12.8
2015-Feb-22 04:13N 42°35' E 006°34'0 0.0 12.8
2015-Feb-22 04:04N 42°35' E 006°34'1 1.9 12.8
2015-Feb-22 03:34N 42°35' E 006°36'2 1.4 12.8
2015-Feb-22 02:29N 42°36' E 006°35'2 1.0 12.8
2015-Feb-22 00:51N 42°37' E 006°37'0 0.0 12.8
2015-Feb-21 21:46N 42°37' E 006°37'0 0.0 12.8
2015-Feb-21 20:55N 42°37' E 006°37'0 0.1 12.8
2015-Feb-21 20:09N 42°37' E 006°37'1 6.1 12.8
2015-Feb-21 20:02N 42°37' E 006°38'1 0.3 12.8
2015-Feb-21 17:07N 42°37' E 006°39'0 7.5 12.9
2015-Feb-21 17:03N 42°38' E 006°40'0 0.0 12.9
2015-Feb-21 17:01N 42°38' E 006°40'0 0.1 12.9
2015-Feb-21 14:01N 42°38' E 006°40'110.7
2015-Feb-21 13:58N 42°37' E 006°41'1 0.4
2015-Feb-21 11:12N 42°37' E 006°42'0 1.6 13.0
2015-Feb-21 10:56N 42°37' E 006°42'2 0.6 13.0
2015-Feb-21 07:47N 42°37' E 006°45'1 0.5 13.0
2015-Feb-21 05:55N 42°38' E 006°46'1 8.1 13.0
2015-Feb-21 05:50N 42°37' E 006°46'0 0.1 13.0
2015-Feb-21 04:50N 42°37' E 006°45'0 0.0 13.0
2015-Feb-21 04:13N 42°37' E 006°45'0 0.0 13.0
2015-Feb-21 04:01N 42°37' E 006°45'1 0.3 13.0
2015-Feb-21 01:06N 42°36' E 006°46'1 0.4 13.1
2015-Feb-20 22:07N 42°35' E 006°47'0 0.0 13.1
2015-Feb-20 21:20N 42°35' E 006°47'1 3.8 13.1
2015-Feb-20 21:09N 42°35' E 006°47'0 0.0 13.1
2015-Feb-20 20:32N 42°35' E 006°47'0 0.6 13.1
2015-Feb-20 20:21N 42°35' E 006°46'0 0.4 13.1
2015-Feb-20 19:28N 42°34' E 006°47'0 1.0 13.1
2015-Feb-20 19:14N 42°34' E 006°47'0 0.2 13.1
2015-Feb-20 17:37N 42°35' E 006°47'1 9.9 13.1
2015-Feb-20 17:30N 42°35' E 006°48'0 0.0 13.2
2015-Feb-20 16:00N 42°35' E 006°48'0 0.4 13.2
2015-Feb-20 15:53N 42°35' E 006°48'2 1.0 13.2
2015-Feb-20 14:10N 42°35' E 006°46'0 0.0 13.2
2015-Feb-20 14:09N 42°35' E 006°46'0 0.0 13.2
2015-Feb-20 12:46N 42°35' E 006°46'1 0.3 13.1
2015-Feb-20 11:01N 42°35' E 006°45'1 0.5 13.1
2015-Feb-20 09:51N 42°35' E 006°46'1 1.0 13.0
2015-Feb-20 09:05N 42°34' E 006°45'1 0.9 13.0
2015-Feb-20 08:08N 42°35' E 006°44'0 0.0 13.0
2015-Feb-20 07:03N 42°35' E 006°44'0 0.0 13.0
2015-Feb-20 06:08N 42°35' E 006°44'1 7.2 13.0
2015-Feb-20 06:03N 42°34' E 006°45'0 0.1 13.0
2015-Feb-20 02:59N 42°34' E 006°45'1 7.2 13.0
2015-Feb-20 02:52N 42°35' E 006°45'   13.0

Dump ship's entire track history